sensor_id;sensor_type;location;lat;lon;timestamp;P1;durP1;ratioP1;P2;durP2;ratioP2
77769;SDS011;66961;51.482;9.160;2023-04-24T00:02:08;1.67;;;0.90;;
77769;SDS011;66961;51.482;9.160;2023-04-24T00:04:34;1.03;;;0.70;;
77769;SDS011;66961;51.482;9.160;2023-04-24T00:06:59;1.33;;;0.97;;
77769;SDS011;66961;51.482;9.160;2023-04-24T00:09:24;5.40;;;1.07;;
77769;SDS011;66961;51.482;9.160;2023-04-24T00:11:49;1.10;;;0.90;;
77769;SDS011;66961;51.482;9.160;2023-04-24T00:14:15;2.17;;;0.82;;
77769;SDS011;66961;51.482;9.160;2023-04-24T00:16:40;1.70;;;0.80;;
77769;SDS011;66961;51.482;9.160;2023-04-24T00:19:06;2.50;;;0.70;;
77769;SDS011;66961;51.482;9.160;2023-04-24T00:21:31;1.70;;;0.80;;
77769;SDS011;66961;51.482;9.160;2023-04-24T00:23:56;0.90;;;0.60;;
77769;SDS011;66961;51.482;9.160;2023-04-24T00:26:21;2.30;;;0.70;;
77769;SDS011;66961;51.482;9.160;2023-04-24T00:28:47;1.17;;;0.80;;
77769;SDS011;66961;51.482;9.160;2023-04-24T00:31:12;1.77;;;1.00;;
77769;SDS011;66961;51.482;9.160;2023-04-24T00:33:37;1.03;;;0.83;;
77769;SDS011;66961;51.482;9.160;2023-04-24T00:36:02;1.83;;;0.70;;
77769;SDS011;66961;51.482;9.160;2023-04-24T00:38:28;2.97;;;0.90;;
77769;SDS011;66961;51.482;9.160;2023-04-24T00:40:53;2.50;;;0.70;;
77769;SDS011;66961;51.482;9.160;2023-04-24T00:43:18;0.80;;;0.60;;
77769;SDS011;66961;51.482;9.160;2023-04-24T00:45:43;0.80;;;0.60;;
77769;SDS011;66961;51.482;9.160;2023-04-24T00:48:09;1.37;;;0.80;;
77769;SDS011;66961;51.482;9.160;2023-04-24T00:50:35;1.55;;;0.73;;
77769;SDS011;66961;51.482;9.160;2023-04-24T00:53:01;1.23;;;0.50;;
77769;SDS011;66961;51.482;9.160;2023-04-24T00:55:26;1.23;;;0.70;;
77769;SDS011;66961;51.482;9.160;2023-04-24T00:57:52;2.13;;;0.70;;
77769;SDS011;66961;51.482;9.160;2023-04-24T01:00:17;1.67;;;0.65;;
77769;SDS011;66961;51.482;9.160;2023-04-24T01:02:43;1.98;;;0.70;;
77769;SDS011;66961;51.482;9.160;2023-04-24T01:05:09;0.90;;;0.60;;
77769;SDS011;66961;51.482;9.160;2023-04-24T01:07:35;0.82;;;0.60;;
77769;SDS011;66961;51.482;9.160;2023-04-24T01:10:01;1.23;;;0.50;;
77769;SDS011;66961;51.482;9.160;2023-04-24T01:12:26;2.50;;;0.70;;
77769;SDS011;66961;51.482;9.160;2023-04-24T01:14:51;2.23;;;0.50;;
77769;SDS011;66961;51.482;9.160;2023-04-24T01:17:16;1.57;;;1.10;;
77769;SDS011;66961;51.482;9.160;2023-04-24T01:19:42;0.93;;;0.60;;
77769;SDS011;66961;51.482;9.160;2023-04-24T01:22:09;0.90;;;0.67;;
77769;SDS011;66961;51.482;9.160;2023-04-24T01:24:35;2.20;;;0.70;;
77769;SDS011;66961;51.482;9.160;2023-04-24T01:27:01;1.95;;;0.50;;
77769;SDS011;66961;51.482;9.160;2023-04-24T01:29:27;0.77;;;0.50;;
77769;SDS011;66961;51.482;9.160;2023-04-24T01:31:52;1.08;;;0.60;;
77769;SDS011;66961;51.482;9.160;2023-04-24T01:34:18;1.58;;;0.70;;
77769;SDS011;66961;51.482;9.160;2023-04-24T01:36:45;0.90;;;0.70;;
77769;SDS011;66961;51.482;9.160;2023-04-24T01:39:11;1.42;;;0.60;;
77769;SDS011;66961;51.482;9.160;2023-04-24T01:41:36;1.10;;;0.77;;
77769;SDS011;66961;51.482;9.160;2023-04-24T01:44:01;1.40;;;0.90;;
77769;SDS011;66961;51.482;9.160;2023-04-24T01:46:27;1.20;;;0.80;;
77769;SDS011;66961;51.482;9.160;2023-04-24T01:48:52;2.50;;;1.00;;
77769;SDS011;66961;51.482;9.160;2023-04-24T01:51:18;1.58;;;0.90;;
77769;SDS011;66961;51.482;9.160;2023-04-24T01:53:43;1.50;;;0.90;;
77769;SDS011;66961;51.482;9.160;2023-04-24T01:56:09;1.90;;;0.90;;
77769;SDS011;66961;51.482;9.160;2023-04-24T01:58:34;1.67;;;0.70;;
77769;SDS011;66961;51.482;9.160;2023-04-24T02:01:00;1.35;;;0.70;;
77769;SDS011;66961;51.482;9.160;2023-04-24T02:03:25;1.17;;;0.80;;
77769;SDS011;66961;51.482;9.160;2023-04-24T02:05:51;1.33;;;0.50;;
77769;SDS011;66961;51.482;9.160;2023-04-24T02:08:16;1.98;;;0.70;;
77769;SDS011;66961;51.482;9.160;2023-04-24T02:10:42;2.13;;;0.73;;
77769;SDS011;66961;51.482;9.160;2023-04-24T02:13:07;2.97;;;0.90;;
77769;SDS011;66961;51.482;9.160;2023-04-24T02:15:32;3.90;;;0.80;;
77769;SDS011;66961;51.482;9.160;2023-04-24T02:17:57;1.20;;;0.53;;
77769;SDS011;66961;51.482;9.160;2023-04-24T02:20:23;1.30;;;0.70;;
77769;SDS011;66961;51.482;9.160;2023-04-24T02:22:48;3.35;;;0.93;;
77769;SDS011;66961;51.482;9.160;2023-04-24T02:25:13;1.40;;;0.70;;
77769;SDS011;66961;51.482;9.160;2023-04-24T02:27:38;1.23;;;0.90;;
77769;SDS011;66961;51.482;9.160;2023-04-24T02:30:04;0.90;;;0.70;;
77769;SDS011;66961;51.482;9.160;2023-04-24T02:32:30;1.52;;;0.77;;
77769;SDS011;66961;51.482;9.160;2023-04-24T02:34:55;1.40;;;0.80;;
77769;SDS011;66961;51.482;9.160;2023-04-24T02:37:20;2.07;;;0.80;;
77769;SDS011;66961;51.482;9.160;2023-04-24T02:39:45;2.03;;;1.07;;
77769;SDS011;66961;51.482;9.160;2023-04-24T02:42:11;1.73;;;1.17;;
77769;SDS011;66961;51.482;9.160;2023-04-24T02:44:36;2.80;;;0.73;;
77769;SDS011;66961;51.482;9.160;2023-04-24T02:47:01;1.37;;;0.80;;
77769;SDS011;66961;51.482;9.160;2023-04-24T02:49:26;1.00;;;0.70;;
77769;SDS011;66961;51.482;9.160;2023-04-24T02:51:51;2.33;;;0.70;;
77769;SDS011;66961;51.482;9.160;2023-04-24T02:54:17;3.43;;;0.90;;
77769;SDS011;66961;51.482;9.160;2023-04-24T02:56:42;3.17;;;1.07;;
77769;SDS011;66961;51.482;9.160;2023-04-24T02:59:07;2.37;;;1.20;;
77769;SDS011;66961;51.482;9.160;2023-04-24T03:01:32;2.57;;;1.57;;
77769;SDS011;66961;51.482;9.160;2023-04-24T03:03:58;2.43;;;1.40;;
77769;SDS011;66961;51.482;9.160;2023-04-24T03:06:23;3.80;;;1.53;;
77769;SDS011;66961;51.482;9.160;2023-04-24T03:08:48;2.53;;;1.83;;
77769;SDS011;66961;51.482;9.160;2023-04-24T03:11:13;3.80;;;1.77;;
77769;SDS011;66961;51.482;9.160;2023-04-24T03:13:38;4.90;;;1.97;;
77769;SDS011;66961;51.482;9.160;2023-04-24T03:16:04;3.07;;;1.70;;
77769;SDS011;66961;51.482;9.160;2023-04-24T03:18:29;3.03;;;1.98;;
77769;SDS011;66961;51.482;9.160;2023-04-24T03:20:54;3.03;;;1.93;;
77769;SDS011;66961;51.482;9.160;2023-04-24T03:23:20;3.85;;;1.73;;
77769;SDS011;66961;51.482;9.160;2023-04-24T03:25:45;3.63;;;2.07;;
77769;SDS011;66961;51.482;9.160;2023-04-24T03:28:10;2.53;;;1.73;;
77769;SDS011;66961;51.482;9.160;2023-04-24T03:30:35;2.87;;;1.80;;
77769;SDS011;66961;51.482;9.160;2023-04-24T03:33:00;3.10;;;2.03;;
77769;SDS011;66961;51.482;9.160;2023-04-24T03:35:26;4.23;;;1.93;;
77769;SDS011;66961;51.482;9.160;2023-04-24T03:37:51;2.97;;;1.87;;
77769;SDS011;66961;51.482;9.160;2023-04-24T03:40:16;2.27;;;1.50;;
77769;SDS011;66961;51.482;9.160;2023-04-24T03:42:42;2.80;;;1.77;;
77769;SDS011;66961;51.482;9.160;2023-04-24T03:45:07;2.90;;;1.87;;
77769;SDS011;66961;51.482;9.160;2023-04-24T03:47:33;2.28;;;1.85;;
77769;SDS011;66961;51.482;9.160;2023-04-24T03:49:58;1.67;;;1.23;;
77769;SDS011;66961;51.482;9.160;2023-04-24T03:52:23;1.90;;;1.17;;
77769;SDS011;66961;51.482;9.160;2023-04-24T03:54:48;1.60;;;1.07;;
77769;SDS011;66961;51.482;9.160;2023-04-24T03:57:14;1.10;;;0.77;;
77769;SDS011;66961;51.482;9.160;2023-04-24T03:59:39;1.90;;;0.80;;
77769;SDS011;66961;51.482;9.160;2023-04-24T04:02:04;1.40;;;1.00;;
77769;SDS011;66961;51.482;9.160;2023-04-24T04:04:29;5.60;;;1.40;;
77769;SDS011;66961;51.482;9.160;2023-04-24T04:06:54;3.03;;;1.50;;
77769;SDS011;66961;51.482;9.160;2023-04-24T04:09:20;2.57;;;1.60;;
77769;SDS011;66961;51.482;9.160;2023-04-24T04:11:45;2.77;;;1.73;;
77769;SDS011;66961;51.482;9.160;2023-04-24T04:14:10;2.93;;;1.77;;
77769;SDS011;66961;51.482;9.160;2023-04-24T04:16:35;3.63;;;2.00;;
77769;SDS011;66961;51.482;9.160;2023-04-24T04:19:01;3.43;;;2.00;;
77769;SDS011;66961;51.482;9.160;2023-04-24T04:21:26;4.13;;;2.57;;
77769;SDS011;66961;51.482;9.160;2023-04-24T04:23:51;2.93;;;2.27;;
77769;SDS011;66961;51.482;9.160;2023-04-24T04:26:16;3.20;;;2.80;;
77769;SDS011;66961;51.482;9.160;2023-04-24T04:28:41;2.70;;;2.23;;
77769;SDS011;66961;51.482;9.160;2023-04-24T04:31:07;3.70;;;2.20;;
77769;SDS011;66961;51.482;9.160;2023-04-24T04:33:32;2.65;;;2.10;;
77769;SDS011;66961;51.482;9.160;2023-04-24T04:35:57;2.40;;;2.10;;
77769;SDS011;66961;51.482;9.160;2023-04-24T04:38:22;4.70;;;1.70;;
77769;SDS011;66961;51.482;9.160;2023-04-24T04:40:48;2.50;;;1.77;;
77769;SDS011;66961;51.482;9.160;2023-04-24T04:43:13;2.15;;;1.95;;
77769;SDS011;66961;51.482;9.160;2023-04-24T04:45:39;3.47;;;1.80;;
77769;SDS011;66961;51.482;9.160;2023-04-24T04:48:04;2.70;;;1.88;;
77769;SDS011;66961;51.482;9.160;2023-04-24T04:50:29;4.03;;;1.80;;
77769;SDS011;66961;51.482;9.160;2023-04-24T04:52:55;2.20;;;1.43;;
77769;SDS011;66961;51.482;9.160;2023-04-24T04:55:20;3.77;;;1.83;;
77769;SDS011;66961;51.482;9.160;2023-04-24T04:57:46;2.07;;;1.53;;
77769;SDS011;66961;51.482;9.160;2023-04-24T05:00:11;1.88;;;1.55;;
77769;SDS011;66961;51.482;9.160;2023-04-24T05:02:37;1.83;;;1.42;;
77769;SDS011;66961;51.482;9.160;2023-04-24T05:05:03;2.92;;;1.75;;
77769;SDS011;66961;51.482;9.160;2023-04-24T05:07:28;3.08;;;1.55;;
77769;SDS011;66961;51.482;9.160;2023-04-24T05:09:53;3.00;;;1.57;;
77769;SDS011;66961;51.482;9.160;2023-04-24T05:12:19;1.47;;;1.20;;
77769;SDS011;66961;51.482;9.160;2023-04-24T05:14:44;1.70;;;1.20;;
77769;SDS011;66961;51.482;9.160;2023-04-24T05:17:09;2.87;;;1.17;;
77769;SDS011;66961;51.482;9.160;2023-04-24T05:19:34;1.63;;;1.00;;
77769;SDS011;66961;51.482;9.160;2023-04-24T05:21:59;3.57;;;1.30;;
77769;SDS011;66961;51.482;9.160;2023-04-24T05:24:25;2.20;;;1.13;;
77769;SDS011;66961;51.482;9.160;2023-04-24T05:26:50;1.98;;;1.20;;
77769;SDS011;66961;51.482;9.160;2023-04-24T05:29:15;1.33;;;1.20;;
77769;SDS011;66961;51.482;9.160;2023-04-24T05:31:40;1.40;;;1.10;;
77769;SDS011;66961;51.482;9.160;2023-04-24T05:34:06;2.33;;;1.17;;
77769;SDS011;66961;51.482;9.160;2023-04-24T05:36:31;1.80;;;1.20;;
77769;SDS011;66961;51.482;9.160;2023-04-24T05:38:56;2.70;;;1.43;;
77769;SDS011;66961;51.482;9.160;2023-04-24T05:41:21;2.13;;;1.20;;
77769;SDS011;66961;51.482;9.160;2023-04-24T05:43:46;1.90;;;1.40;;
77769;SDS011;66961;51.482;9.160;2023-04-24T05:46:12;2.77;;;1.43;;
77769;SDS011;66961;51.482;9.160;2023-04-24T05:48:37;3.37;;;1.70;;
77769;SDS011;66961;51.482;9.160;2023-04-24T05:51:02;2.43;;;2.10;;
77769;SDS011;66961;51.482;9.160;2023-04-24T05:53:27;1.92;;;1.52;;
77769;SDS011;66961;51.482;9.160;2023-04-24T05:55:53;2.73;;;1.57;;
77769;SDS011;66961;51.482;9.160;2023-04-24T05:58:18;3.07;;;1.60;;
77769;SDS011;66961;51.482;9.160;2023-04-24T06:00:43;4.47;;;1.53;;
77769;SDS011;66961;51.482;9.160;2023-04-24T06:03:08;2.60;;;1.80;;
77769;SDS011;66961;51.482;9.160;2023-04-24T06:05:34;2.30;;;1.70;;
77769;SDS011;66961;51.482;9.160;2023-04-24T06:07:59;2.53;;;1.88;;
77769;SDS011;66961;51.482;9.160;2023-04-24T06:10:24;4.27;;;2.27;;
77769;SDS011;66961;51.482;9.160;2023-04-24T06:12:50;2.93;;;1.70;;
77769;SDS011;66961;51.482;9.160;2023-04-24T06:15:15;3.60;;;1.87;;
77769;SDS011;66961;51.482;9.160;2023-04-24T06:17:40;4.30;;;1.77;;
77769;SDS011;66961;51.482;9.160;2023-04-24T06:20:05;2.40;;;1.87;;
77769;SDS011;66961;51.482;9.160;2023-04-24T06:22:31;2.35;;;1.42;;
77769;SDS011;66961;51.482;9.160;2023-04-24T06:24:56;2.90;;;1.80;;
77769;SDS011;66961;51.482;9.160;2023-04-24T06:27:21;2.67;;;2.10;;
77769;SDS011;66961;51.482;9.160;2023-04-24T06:29:47;3.23;;;2.70;;
77769;SDS011;66961;51.482;9.160;2023-04-24T06:32:12;3.53;;;2.60;;
77769;SDS011;66961;51.482;9.160;2023-04-24T06:34:37;5.77;;;3.20;;
77769;SDS011;66961;51.482;9.160;2023-04-24T06:37:02;4.83;;;3.30;;
77769;SDS011;66961;51.482;9.160;2023-04-24T06:39:28;6.53;;;4.10;;
77769;SDS011;66961;51.482;9.160;2023-04-24T06:41:53;4.47;;;3.67;;
77769;SDS011;66961;51.482;9.160;2023-04-24T06:44:18;7.33;;;4.50;;
77769;SDS011;66961;51.482;9.160;2023-04-24T06:46:43;5.90;;;4.50;;
77769;SDS011;66961;51.482;9.160;2023-04-24T06:49:09;5.43;;;4.43;;
77769;SDS011;66961;51.482;9.160;2023-04-24T06:51:34;6.00;;;4.82;;
77769;SDS011;66961;51.482;9.160;2023-04-24T06:53:59;6.47;;;4.83;;
77769;SDS011;66961;51.482;9.160;2023-04-24T06:56:27;7.03;;;5.13;;
77769;SDS011;66961;51.482;9.160;2023-04-24T06:58:53;5.80;;;4.72;;
77769;SDS011;66961;51.482;9.160;2023-04-24T07:01:18;6.70;;;4.53;;
77769;SDS011;66961;51.482;9.160;2023-04-24T07:03:43;6.80;;;4.83;;
77769;SDS011;66961;51.482;9.160;2023-04-24T07:06:09;5.87;;;4.13;;
77769;SDS011;66961;51.482;9.160;2023-04-24T07:08:34;5.90;;;5.07;;
77769;SDS011;66961;51.482;9.160;2023-04-24T07:10:59;8.53;;;5.50;;
77769;SDS011;66961;51.482;9.160;2023-04-24T07:13:25;6.90;;;4.90;;
77769;SDS011;66961;51.482;9.160;2023-04-24T07:15:50;6.90;;;5.43;;
77769;SDS011;66961;51.482;9.160;2023-04-24T07:18:15;6.03;;;4.77;;
77769;SDS011;66961;51.482;9.160;2023-04-24T07:20:41;7.25;;;5.10;;
77769;SDS011;66961;51.482;9.160;2023-04-24T07:23:07;5.22;;;4.30;;
77769;SDS011;66961;51.482;9.160;2023-04-24T07:25:32;6.60;;;4.70;;
77769;SDS011;66961;51.482;9.160;2023-04-24T07:27:58;7.15;;;4.88;;
77769;SDS011;66961;51.482;9.160;2023-04-24T07:30:23;6.00;;;4.33;;
77769;SDS011;66961;51.482;9.160;2023-04-24T07:32:48;5.20;;;4.27;;
77769;SDS011;66961;51.482;9.160;2023-04-24T07:35:13;5.00;;;3.50;;
77769;SDS011;66961;51.482;9.160;2023-04-24T07:37:39;5.93;;;4.18;;
77769;SDS011;66961;51.482;9.160;2023-04-24T07:40:04;4.83;;;3.60;;
77769;SDS011;66961;51.482;9.160;2023-04-24T07:42:30;6.22;;;3.53;;
77769;SDS011;66961;51.482;9.160;2023-04-24T07:44:55;4.70;;;3.30;;
77769;SDS011;66961;51.482;9.160;2023-04-24T07:47:20;3.80;;;3.20;;
77769;SDS011;66961;51.482;9.160;2023-04-24T07:49:45;4.03;;;3.63;;
77769;SDS011;66961;51.482;9.160;2023-04-24T07:52:11;4.33;;;3.30;;
77769;SDS011;66961;51.482;9.160;2023-04-24T07:54:36;4.83;;;3.53;;
77769;SDS011;66961;51.482;9.160;2023-04-24T07:57:01;4.60;;;3.90;;
77769;SDS011;66961;51.482;9.160;2023-04-24T07:59:26;5.50;;;3.50;;
77769;SDS011;66961;51.482;9.160;2023-04-24T08:01:51;6.63;;;3.87;;
77769;SDS011;66961;51.482;9.160;2023-04-24T08:04:17;4.97;;;4.00;;
77769;SDS011;66961;51.482;9.160;2023-04-24T08:06:42;4.53;;;3.47;;
77769;SDS011;66961;51.482;9.160;2023-04-24T08:09:07;4.83;;;3.73;;
77769;SDS011;66961;51.482;9.160;2023-04-24T08:11:32;4.67;;;3.50;;
77769;SDS011;66961;51.482;9.160;2023-04-24T08:13:57;4.57;;;4.03;;
77769;SDS011;66961;51.482;9.160;2023-04-24T08:16:23;4.80;;;3.60;;
77769;SDS011;66961;51.482;9.160;2023-04-24T08:18:48;5.03;;;3.60;;
77769;SDS011;66961;51.482;9.160;2023-04-24T08:21:13;4.90;;;3.70;;
77769;SDS011;66961;51.482;9.160;2023-04-24T08:23:38;4.70;;;3.67;;
77769;SDS011;66961;51.482;9.160;2023-04-24T08:26:04;3.80;;;3.20;;
77769;SDS011;66961;51.482;9.160;2023-04-24T08:28:29;5.07;;;3.92;;
77769;SDS011;66961;51.482;9.160;2023-04-24T08:30:55;5.57;;;3.90;;
77769;SDS011;66961;51.482;9.160;2023-04-24T08:33:21;4.70;;;3.63;;
77769;SDS011;66961;51.482;9.160;2023-04-24T08:35:47;6.22;;;4.18;;
77769;SDS011;66961;51.482;9.160;2023-04-24T08:38:13;4.63;;;3.72;;
77769;SDS011;66961;51.482;9.160;2023-04-24T08:40:38;5.57;;;3.90;;
77769;SDS011;66961;51.482;9.160;2023-04-24T08:43:03;5.32;;;3.40;;
77769;SDS011;66961;51.482;9.160;2023-04-24T08:45:29;3.80;;;2.90;;
77769;SDS011;66961;51.482;9.160;2023-04-24T08:47:54;4.73;;;3.13;;
77769;SDS011;66961;51.482;9.160;2023-04-24T08:50:20;3.60;;;3.05;;
77769;SDS011;66961;51.482;9.160;2023-04-24T08:52:46;2.70;;;2.40;;
77769;SDS011;66961;51.482;9.160;2023-04-24T08:55:12;3.20;;;1.90;;
77769;SDS011;66961;51.482;9.160;2023-04-24T08:57:37;4.07;;;3.27;;
77769;SDS011;66961;51.482;9.160;2023-04-24T09:00:02;2.07;;;1.87;;
77769;SDS011;66961;51.482;9.160;2023-04-24T09:02:28;2.58;;;2.20;;
77769;SDS011;66961;51.482;9.160;2023-04-24T09:04:53;3.38;;;2.15;;
77769;SDS011;66961;51.482;9.160;2023-04-24T09:07:21;3.70;;;2.38;;
77769;SDS011;66961;51.482;9.160;2023-04-24T09:09:47;4.18;;;2.13;;
77769;SDS011;66961;51.482;9.160;2023-04-24T09:12:15;3.50;;;2.40;;
77769;SDS011;66961;51.482;9.160;2023-04-24T09:14:40;3.15;;;2.35;;
77769;SDS011;66961;51.482;9.160;2023-04-24T09:17:06;4.33;;;2.80;;
77769;SDS011;66961;51.482;9.160;2023-04-24T09:19:31;3.70;;;2.90;;
77769;SDS011;66961;51.482;9.160;2023-04-24T09:21:56;3.97;;;3.05;;
77769;SDS011;66961;51.482;9.160;2023-04-24T09:24:22;3.50;;;2.37;;
77769;SDS011;66961;51.482;9.160;2023-04-24T09:26:47;3.97;;;3.58;;
77769;SDS011;66961;51.482;9.160;2023-04-24T09:29:17;4.15;;;2.78;;
77769;SDS011;66961;51.482;9.160;2023-04-24T09:31:44;6.13;;;2.80;;
77769;SDS011;66961;51.482;9.160;2023-04-24T09:34:09;2.90;;;2.60;;
77769;SDS011;66961;51.482;9.160;2023-04-24T09:36:36;4.57;;;2.80;;
77769;SDS011;66961;51.482;9.160;2023-04-24T09:39:04;3.47;;;2.10;;
77769;SDS011;66961;51.482;9.160;2023-04-24T09:41:32;3.00;;;2.20;;
77769;SDS011;66961;51.482;9.160;2023-04-24T09:44:01;3.08;;;2.40;;
77769;SDS011;66961;51.482;9.160;2023-04-24T09:46:36;3.60;;;2.33;;
77769;SDS011;66961;51.482;9.160;2023-04-24T09:49:15;4.03;;;2.38;;
77769;SDS011;66961;51.482;9.160;2023-04-24T09:51:41;2.70;;;2.30;;
77769;SDS011;66961;51.482;9.160;2023-04-24T09:54:14;3.95;;;2.65;;
77769;SDS011;66961;51.482;9.160;2023-04-24T09:56:42;6.20;;;2.50;;
77769;SDS011;66961;51.482;9.160;2023-04-24T09:59:08;3.50;;;2.08;;
77769;SDS011;66961;51.482;9.160;2023-04-24T10:01:33;3.28;;;1.65;;
77769;SDS011;66961;51.482;9.160;2023-04-24T10:03:59;2.10;;;1.90;;
77769;SDS011;66961;51.482;9.160;2023-04-24T10:06:32;2.80;;;1.90;;
77769;SDS011;66961;51.482;9.160;2023-04-24T10:08:58;2.08;;;1.52;;
77769;SDS011;66961;51.482;9.160;2023-04-24T10:11:28;1.92;;;1.60;;
77769;SDS011;66961;51.482;9.160;2023-04-24T10:13:54;2.00;;;1.70;;
77769;SDS011;66961;51.482;9.160;2023-04-24T10:16:20;3.28;;;1.50;;
77769;SDS011;66961;51.482;9.160;2023-04-24T10:18:48;4.53;;;1.65;;
77769;SDS011;66961;51.482;9.160;2023-04-24T10:21:13;1.25;;;1.00;;
77769;SDS011;66961;51.482;9.160;2023-04-24T10:23:39;1.65;;;0.88;;
77769;SDS011;66961;51.482;9.160;2023-04-24T10:26:06;3.65;;;1.50;;
77769;SDS011;66961;51.482;9.160;2023-04-24T10:28:37;1.00;;;0.82;;
77769;SDS011;66961;51.482;9.160;2023-04-24T10:31:03;1.50;;;1.10;;
77769;SDS011;66961;51.482;9.160;2023-04-24T10:33:29;1.60;;;1.00;;
77769;SDS011;66961;51.482;9.160;2023-04-24T10:35:55;2.50;;;1.00;;
77769;SDS011;66961;51.482;9.160;2023-04-24T10:38:22;1.10;;;0.70;;
77769;SDS011;66961;51.482;9.160;2023-04-24T10:40:50;1.13;;;1.02;;
77769;SDS011;66961;51.482;9.160;2023-04-24T10:43:16;1.70;;;1.30;;
77769;SDS011;66961;51.482;9.160;2023-04-24T10:45:42;2.78;;;0.60;;
77769;SDS011;66961;51.482;9.160;2023-04-24T10:48:26;1.60;;;0.70;;
77769;SDS011;66961;51.482;9.160;2023-04-24T10:50:52;1.98;;;0.40;;
77769;SDS011;66961;51.482;9.160;2023-04-24T10:53:22;0.55;;;0.20;;
77769;SDS011;66961;51.482;9.160;2023-04-24T10:55:49;0.50;;;0.30;;
77769;SDS011;66961;51.482;9.160;2023-04-24T10:58:16;0.52;;;0.30;;
77769;SDS011;66961;51.482;9.160;2023-04-24T11:03:30;0.20;;;0.10;;
77769;SDS011;66961;51.482;9.160;2023-04-24T11:13:26;0.40;;;0.10;;
77769;SDS011;66961;51.482;9.160;2023-04-24T11:18:39;1.48;;;0.10;;
77769;SDS011;66961;51.482;9.160;2023-04-24T11:21:16;0.20;;;0.10;;
77769;SDS011;66961;51.482;9.160;2023-04-24T11:23:42;0.13;;;0.05;;
77769;SDS011;66961;51.482;9.160;2023-04-24T11:26:18;0.10;;;0.10;;
77769;SDS011;66961;51.482;9.160;2023-04-24T11:28:46;0.30;;;0.15;;
77769;SDS011;66961;51.482;9.160;2023-04-24T11:34:13;0.70;;;0.10;;
77769;SDS011;66961;51.482;9.160;2023-04-24T11:36:39;0.15;;;0.10;;
77769;SDS011;66961;51.482;9.160;2023-04-24T11:39:07;0.10;;;0.10;;
77769;SDS011;66961;51.482;9.160;2023-04-24T11:41:33;0.10;;;0.10;;
77769;SDS011;66961;51.482;9.160;2023-04-24T11:43:58;0.57;;;0.20;;
77769;SDS011;66961;51.482;9.160;2023-04-24T11:46:27;0.03;;;0.00;;
77769;SDS011;66961;51.482;9.160;2023-04-24T11:48:53;0.00;;;0.00;;
77769;SDS011;66961;51.482;9.160;2023-04-24T11:51:18;0.40;;;0.00;;
77769;SDS011;66961;51.482;9.160;2023-04-24T11:53:44;0.93;;;0.00;;
77769;SDS011;66961;51.482;9.160;2023-04-24T11:56:09;0.30;;;0.10;;
77769;SDS011;66961;51.482;9.160;2023-04-24T11:58:38;0.40;;;0.10;;
77769;SDS011;66961;51.482;9.160;2023-04-24T12:01:03;0.40;;;0.20;;
77769;SDS011;66961;51.482;9.160;2023-04-24T12:03:29;0.05;;;0.00;;
77769;SDS011;66961;51.482;9.160;2023-04-24T12:06:10;0.50;;;0.10;;
77769;SDS011;66961;51.482;9.160;2023-04-24T12:08:36;1.63;;;0.65;;
77769;SDS011;66961;51.482;9.160;2023-04-24T12:11:02;0.60;;;0.45;;
77769;SDS011;66961;51.482;9.160;2023-04-24T12:13:29;1.27;;;0.43;;
77769;SDS011;66961;51.482;9.160;2023-04-24T12:15:54;1.20;;;0.43;;
77769;SDS011;66961;51.482;9.160;2023-04-24T12:18:24;1.13;;;0.40;;
77769;SDS011;66961;51.482;9.160;2023-04-24T12:20:49;0.73;;;0.40;;
77769;SDS011;66961;51.482;9.160;2023-04-24T12:23:15;0.82;;;0.47;;
77769;SDS011;66961;51.482;9.160;2023-04-24T12:25:40;0.40;;;0.20;;
77769;SDS011;66961;51.482;9.160;2023-04-24T12:30:32;0.23;;;0.10;;
77769;SDS011;66961;51.482;9.160;2023-04-24T12:33:27;0.30;;;0.20;;
77769;SDS011;66961;51.482;9.160;2023-04-24T12:35:52;0.40;;;0.20;;
77769;SDS011;66961;51.482;9.160;2023-04-24T12:38:22;0.28;;;0.13;;
77769;SDS011;66961;51.482;9.160;2023-04-24T12:41:00;0.30;;;0.10;;
77769;SDS011;66961;51.482;9.160;2023-04-24T12:43:30;0.70;;;0.17;;
77769;SDS011;66961;51.482;9.160;2023-04-24T12:45:55;0.43;;;0.30;;
77769;SDS011;66961;51.482;9.160;2023-04-24T12:48:20;0.40;;;0.30;;
77769;SDS011;66961;51.482;9.160;2023-04-24T12:50:45;1.00;;;0.40;;
77769;SDS011;66961;51.482;9.160;2023-04-24T12:53:11;0.50;;;0.30;;
77769;SDS011;66961;51.482;9.160;2023-04-24T12:55:36;0.47;;;0.30;;
77769;SDS011;66961;51.482;9.160;2023-04-24T12:58:02;0.95;;;0.30;;
77769;SDS011;66961;51.482;9.160;2023-04-24T13:00:27;0.77;;;0.40;;
77769;SDS011;66961;51.482;9.160;2023-04-24T13:02:52;0.90;;;0.47;;
77769;SDS011;66961;51.482;9.160;2023-04-24T13:05:18;1.73;;;0.30;;
77769;SDS011;66961;51.482;9.160;2023-04-24T13:07:44;0.43;;;0.30;;
77769;SDS011;66961;51.482;9.160;2023-04-24T13:10:09;1.03;;;0.30;;
77769;SDS011;66961;51.482;9.160;2023-04-24T13:12:35;0.47;;;0.35;;
77769;SDS011;66961;51.482;9.160;2023-04-24T13:15:00;1.83;;;0.47;;
77769;SDS011;66961;51.482;9.160;2023-04-24T13:17:26;0.73;;;0.20;;
77769;SDS011;66961;51.482;9.160;2023-04-24T13:19:51;1.10;;;0.50;;
77769;SDS011;66961;51.482;9.160;2023-04-24T13:22:20;0.65;;;0.43;;
77769;SDS011;66961;51.482;9.160;2023-04-24T13:24:45;1.60;;;0.75;;
77769;SDS011;66961;51.482;9.160;2023-04-24T13:27:11;1.50;;;0.60;;
77769;SDS011;66961;51.482;9.160;2023-04-24T13:29:36;1.40;;;0.80;;
77769;SDS011;66961;51.482;9.160;2023-04-24T13:32:02;1.17;;;0.75;;
77769;SDS011;66961;51.482;9.160;2023-04-24T13:34:27;2.15;;;0.95;;
77769;SDS011;66961;51.482;9.160;2023-04-24T13:36:53;1.17;;;0.90;;
77769;SDS011;66961;51.482;9.160;2023-04-24T13:39:20;1.92;;;1.17;;
77769;SDS011;66961;51.482;9.160;2023-04-24T13:41:46;2.95;;;1.45;;
77769;SDS011;66961;51.482;9.160;2023-04-24T13:44:11;3.22;;;1.83;;
77769;SDS011;66961;51.482;9.160;2023-04-24T13:46:36;3.20;;;2.00;;
77769;SDS011;66961;51.482;9.160;2023-04-24T13:49:02;3.10;;;2.13;;
77769;SDS011;66961;51.482;9.160;2023-04-24T13:51:27;5.25;;;2.40;;
77769;SDS011;66961;51.482;9.160;2023-04-24T13:53:53;4.87;;;2.10;;
77769;SDS011;66961;51.482;9.160;2023-04-24T13:56:18;3.20;;;2.10;;
77769;SDS011;66961;51.482;9.160;2023-04-24T13:58:43;3.27;;;2.57;;
77769;SDS011;66961;51.482;9.160;2023-04-24T14:01:09;4.05;;;2.88;;
77769;SDS011;66961;51.482;9.160;2023-04-24T14:03:34;4.43;;;2.90;;
77769;SDS011;66961;51.482;9.160;2023-04-24T14:06:01;4.57;;;2.85;;
77769;SDS011;66961;51.482;9.160;2023-04-24T14:08:27;4.77;;;3.20;;
77769;SDS011;66961;51.482;9.160;2023-04-24T14:10:52;6.17;;;3.30;;
77769;SDS011;66961;51.482;9.160;2023-04-24T14:13:17;5.77;;;3.63;;
77769;SDS011;66961;51.482;9.160;2023-04-24T14:15:43;5.93;;;4.35;;
77769;SDS011;66961;51.482;9.160;2023-04-24T14:18:08;7.43;;;4.30;;
77769;SDS011;66961;51.482;9.160;2023-04-24T14:20:33;5.37;;;4.20;;
77769;SDS011;66961;51.482;9.160;2023-04-24T14:22:58;5.37;;;3.70;;
77769;SDS011;66961;51.482;9.160;2023-04-24T14:25:24;6.67;;;4.53;;
77769;SDS011;66961;51.482;9.160;2023-04-24T14:27:49;5.72;;;4.28;;
77769;SDS011;66961;51.482;9.160;2023-04-24T14:30:14;6.50;;;4.33;;
77769;SDS011;66961;51.482;9.160;2023-04-24T14:32:40;6.80;;;4.60;;
77769;SDS011;66961;51.482;9.160;2023-04-24T14:35:06;6.78;;;4.18;;
77769;SDS011;66961;51.482;9.160;2023-04-24T14:37:32;7.55;;;3.85;;
77769;SDS011;66961;51.482;9.160;2023-04-24T14:39:57;10.05;;;4.00;;
77769;SDS011;66961;51.482;9.160;2023-04-24T14:42:22;5.90;;;3.40;;
77769;SDS011;66961;51.482;9.160;2023-04-24T14:44:48;5.90;;;3.25;;
77769;SDS011;66961;51.482;9.160;2023-04-24T14:47:13;5.80;;;2.87;;
77769;SDS011;66961;51.482;9.160;2023-04-24T14:49:38;7.53;;;3.80;;
77769;SDS011;66961;51.482;9.160;2023-04-24T14:52:03;5.83;;;3.17;;
77769;SDS011;66961;51.482;9.160;2023-04-24T14:54:29;8.20;;;3.50;;
77769;SDS011;66961;51.482;9.160;2023-04-24T14:56:54;4.13;;;3.50;;
77769;SDS011;66961;51.482;9.160;2023-04-24T14:59:19;7.82;;;3.53;;